createdAt,value
2023-05-07T00:00:02.988Z,84.15
2023-05-07T00:00:13.901Z,84.15
2023-05-07T00:00:24.706Z,84.15
2023-05-07T00:00:35.432Z,84.15
2023-05-07T00:00:46.145Z,84.15
2023-05-07T00:00:57.870Z,84.15
2023-05-07T00:01:08.596Z,84.15
2023-05-07T00:01:20.293Z,84.15
2023-05-07T00:01:31.105Z,84.05
2023-05-07T00:01:41.822Z,84.15
2023-05-07T00:01:52.575Z,84.15
2023-05-07T00:02:04.799Z,84.15
2023-05-07T00:02:15.498Z,84.25
2023-05-07T00:02:26.435Z,84.15
2023-05-07T00:02:38.329Z,84.15
2023-05-07T00:02:50.593Z,84.05
2023-05-07T00:03:02.413Z,84.05
2023-05-07T00:03:15.413Z,83.95
2023-05-07T00:03:26.300Z,84.05
2023-05-07T00:03:38.236Z,84.05
2023-05-07T00:03:50.177Z,84.05
2023-05-07T00:04:02.253Z,84.05
2023-05-07T00:04:13.224Z,84.05
2023-05-07T00:04:24.157Z,83.95
2023-05-07T00:04:36.389Z,83.95
2023-05-07T00:04:49.322Z,83.95
2023-05-07T00:05:01.305Z,83.84
2023-05-07T00:05:12.346Z,83.95
2023-05-07T00:05:24.090Z,83.95
2023-05-07T00:05:35.778Z,83.95
2023-05-07T00:05:46.481Z,84.05
2023-05-07T00:05:57.227Z,84.05
2023-05-07T00:06:09.646Z,84.15
2023-05-07T00:06:20.350Z,84.15
2023-05-07T00:06:32.128Z,84.15
2023-05-07T00:06:42.938Z,84.15
2023-05-07T00:06:56.092Z,84.25
2023-05-07T00:07:06.810Z,84.25
2023-05-07T00:07:17.573Z,84.35
2023-05-07T00:07:29.314Z,84.45
2023-05-07T00:07:42.066Z,84.56
2023-05-07T00:07:53.890Z,84.66
2023-05-07T00:08:05.604Z,84.66
2023-05-07T00:08:16.365Z,84.70
2023-05-07T00:08:27.096Z,84.66
2023-05-07T00:08:38.959Z,84.56
2023-05-07T00:08:49.660Z,84.50
2023-05-07T00:09:02.071Z,84.39
2023-05-07T00:09:12.816Z,84.39
2023-05-07T00:09:24.501Z,84.39
2023-05-07T00:09:35.278Z,84.39
2023-05-07T00:09:47.787Z,84.39
2023-05-07T00:09:58.496Z,84.29
2023-05-07T00:10:10.343Z,84.29
2023-05-07T00:10:21.167Z,84.29
2023-05-07T00:10:31.909Z,84.29
2023-05-07T00:10:44.820Z,84.29
2023-05-07T00:10:55.550Z,84.29
2023-05-07T00:11:06.240Z,84.29
2023-05-07T00:11:16.958Z,84.29
2023-05-07T00:11:27.698Z,84.29
2023-05-07T00:11:40.149Z,84.29
2023-05-07T00:11:50.903Z,84.39
2023-05-07T00:12:02.562Z,84.39
2023-05-07T00:12:13.304Z,84.50
2023-05-07T00:12:24.028Z,84.59
2023-05-07T00:12:34.939Z,84.59
2023-05-07T00:12:45.692Z,84.59
2023-05-07T00:12:56.447Z,84.50
2023-05-07T00:13:07.196Z,84.50
2023-05-07T00:13:18.038Z,84.39
2023-05-07T00:13:28.751Z,84.39
2023-05-07T00:13:39.427Z,84.50
2023-05-07T00:13:51.864Z,84.59
2023-05-07T00:14:02.597Z,84.70
2023-05-07T00:14:13.291Z,84.70
2023-05-07T00:14:24.002Z,84.80
2023-05-07T00:14:36.414Z,84.80
2023-05-07T00:14:47.126Z,84.70
2023-05-07T00:14:57.841Z,84.70
2023-05-07T00:15:08.928Z,84.70
2023-05-07T00:15:21.529Z,84.70
2023-05-07T00:15:33.937Z,84.90
2023-05-07T00:15:44.705Z,85.00
2023-05-07T00:15:57.103Z,85.00
2023-05-07T00:16:07.834Z,85.11
2023-05-07T00:16:18.566Z,85.21
2023-05-07T00:16:29.386Z,85.21
2023-05-07T00:16:40.229Z,85.11
2023-05-07T00:16:51.994Z,85.00
2023-05-07T00:17:02.741Z,85.00
2023-05-07T00:17:13.422Z,84.90
2023-05-07T00:17:24.143Z,84.90
2023-05-07T00:17:34.852Z,85.05
2023-05-07T00:17:45.605Z,85.11
2023-05-07T00:17:58.488Z,85.14
2023-05-07T00:18:10.198Z,85.14
2023-05-07T00:18:21.866Z,85.05
2023-05-07T00:18:34.263Z,85.05
2023-05-07T00:18:44.979Z,85.05
2023-05-07T00:18:55.715Z,85.05
2023-05-07T00:19:07.457Z,85.14
2023-05-07T00:19:18.628Z,85.14
2023-05-07T00:19:31.037Z,85.14
2023-05-07T00:19:41.755Z,85.25
2023-05-07T00:19:52.450Z,85.25
2023-05-07T00:20:03.148Z,85.25
2023-05-07T00:20:13.945Z,85.25
2023-05-07T00:20:26.172Z,85.25
2023-05-07T00:20:37.877Z,85.25
2023-05-07T00:20:48.592Z,85.25
2023-05-07T00:21:01.492Z,85.25
2023-05-07T00:21:12.213Z,85.25
2023-05-07T00:21:22.927Z,85.35
2023-05-07T00:21:33.629Z,85.35
2023-05-07T00:21:44.327Z,85.35
2023-05-07T00:21:55.030Z,85.35
2023-05-07T00:22:05.739Z,85.35
2023-05-07T00:22:16.435Z,85.35
2023-05-07T00:22:28.093Z,85.25
2023-05-07T00:22:38.795Z,85.35
2023-05-07T00:22:50.456Z,85.35
2023-05-07T00:23:01.185Z,85.35
2023-05-07T00:23:11.932Z,85.35
2023-05-07T00:23:22.685Z,85.45
2023-05-07T00:23:33.384Z,85.45
2023-05-07T00:23:44.119Z,85.55
2023-05-07T00:23:54.838Z,85.66
2023-05-07T00:24:06.761Z,85.66
2023-05-07T00:24:17.468Z,85.75
2023-05-07T00:24:28.171Z,85.75
2023-05-07T00:24:38.869Z,85.86
2023-05-07T00:24:51.622Z,85.86
2023-05-07T00:25:02.380Z,85.86
2023-05-07T00:25:13.049Z,85.75
2023-05-07T00:25:23.755Z,85.75
2023-05-07T00:25:34.590Z,85.66
2023-05-07T00:25:45.374Z,85.66
2023-05-07T00:25:56.065Z,85.66
2023-05-07T00:26:07.760Z,85.66
2023-05-07T00:26:18.462Z,85.66
2023-05-07T00:26:29.176Z,85.66
2023-05-07T00:26:39.908Z,85.66
2023-05-07T00:26:50.589Z,85.75
2023-05-07T00:27:01.295Z,85.86
2023-05-07T00:27:12.020Z,85.86
2023-05-07T00:27:22.794Z,85.86
2023-05-07T00:27:34.477Z,85.75
2023-05-07T00:27:45.185Z,85.66
2023-05-07T00:27:55.891Z,85.55
2023-05-07T00:28:06.659Z,85.55
2023-05-07T00:28:17.379Z,85.35
2023-05-07T00:28:28.104Z,85.25
2023-05-07T00:28:38.789Z,85.25
2023-05-07T00:28:50.962Z,85.25
2023-05-07T00:29:01.706Z,85.35
2023-05-07T00:29:14.116Z,85.35
2023-05-07T00:29:26.489Z,85.35
2023-05-07T00:29:40.155Z,85.35
2023-05-07T00:29:53.883Z,85.45
2023-05-07T00:30:06.294Z,85.55
2023-05-07T00:30:16.994Z,85.55
2023-05-07T00:30:27.698Z,85.55
2023-05-07T00:30:40.101Z,85.55
2023-05-07T00:30:52.504Z,85.55
2023-05-07T00:31:04.174Z,85.66
2023-05-07T00:31:14.936Z,85.66
2023-05-07T00:31:26.658Z,85.66
2023-05-07T00:31:38.368Z,85.66
2023-05-07T00:31:49.091Z,85.66
2023-05-07T00:31:59.839Z,85.66
2023-05-07T00:32:12.758Z,85.55
2023-05-07T00:32:25.156Z,85.55
2023-05-07T00:32:35.868Z,85.45
2023-05-07T00:32:46.634Z,85.45
2023-05-07T00:32:58.389Z,85.55
2023-05-07T00:33:09.120Z,85.55
2023-05-07T00:33:19.809Z,85.55
2023-05-07T00:33:30.528Z,85.55
2023-05-07T00:33:41.267Z,85.45
2023-05-07T00:33:51.957Z,85.45
2023-05-07T00:34:03.626Z,85.45
2023-05-07T00:34:15.294Z,85.45
2023-05-07T00:34:26.062Z,85.45
2023-05-07T00:34:36.772Z,85.55
2023-05-07T00:34:49.215Z,85.69
2023-05-07T00:35:01.618Z,85.66
2023-05-07T00:35:14.025Z,85.55
2023-05-07T00:35:24.751Z,85.55
2023-05-07T00:35:37.182Z,85.55
2023-05-07T00:35:47.886Z,85.49
2023-05-07T00:36:00.057Z,85.45
2023-05-07T00:36:11.779Z,85.60
2023-05-07T00:36:24.181Z,85.55
2023-05-07T00:36:36.356Z,85.60
2023-05-07T00:36:47.076Z,85.55
2023-05-07T00:36:57.762Z,85.60
2023-05-07T00:37:08.488Z,85.60
2023-05-07T00:37:20.167Z,85.60
2023-05-07T00:37:31.843Z,85.55
2023-05-07T00:37:42.554Z,85.60
2023-05-07T00:37:54.236Z,85.55
2023-05-07T00:38:07.174Z,85.55
2023-05-07T00:38:18.868Z,85.60
2023-05-07T00:38:32.275Z,85.60
2023-05-07T00:38:45.454Z,85.49
2023-05-07T00:38:57.616Z,85.60
2023-05-07T00:39:08.338Z,85.60
2023-05-07T00:39:19.087Z,85.60
2023-05-07T00:39:29.797Z,85.60
2023-05-07T00:39:40.523Z,85.60
2023-05-07T00:39:51.261Z,85.60
2023-05-07T00:40:01.986Z,85.60
2023-05-07T00:40:14.400Z,85.60
2023-05-07T00:40:26.086Z,85.60
2023-05-07T00:40:36.813Z,85.60
2023-05-07T00:40:47.544Z,85.60
2023-05-07T00:40:58.247Z,85.60
2023-05-07T00:41:10.430Z,85.60
2023-05-07T00:41:21.123Z,85.60
2023-05-07T00:41:31.821Z,85.60
2023-05-07T00:41:42.511Z,85.60
2023-05-07T00:41:53.219Z,85.60
2023-05-07T00:42:04.885Z,85.60
2023-05-07T00:42:15.595Z,85.60
2023-05-07T00:42:27.277Z,85.60
2023-05-07T00:42:38.040Z,85.60
2023-05-07T00:42:49.724Z,85.60
2023-05-07T00:43:00.420Z,85.49
2023-05-07T00:43:11.106Z,85.39
2023-05-07T00:43:24.309Z,85.39
2023-05-07T00:43:35.991Z,85.49
2023-05-07T00:43:47.627Z,85.60
2023-05-07T00:43:59.313Z,85.69
2023-05-07T00:44:10.102Z,85.69
2023-05-07T00:44:20.808Z,85.69
2023-05-07T00:44:31.507Z,85.69
2023-05-07T00:44:43.208Z,85.69
2023-05-07T00:44:53.958Z,85.69
2023-05-07T00:45:04.646Z,85.60
2023-05-07T00:45:15.327Z,85.60
2023-05-07T00:45:27.031Z,85.60
2023-05-07T00:45:37.832Z,85.60
2023-05-07T00:45:48.652Z,85.49
2023-05-07T00:46:00.384Z,85.39
2023-05-07T00:46:12.174Z,85.28
2023-05-07T00:46:25.374Z,85.28
2023-05-07T00:46:38.075Z,85.19
2023-05-07T00:46:48.781Z,85.08
2023-05-07T00:46:59.549Z,84.98
2023-05-07T00:47:10.270Z,84.98
2023-05-07T00:47:20.992Z,84.98
2023-05-07T00:47:31.719Z,84.98
2023-05-07T00:47:42.428Z,84.98
2023-05-07T00:47:54.163Z,84.98
2023-05-07T00:48:04.885Z,84.98
2023-05-07T00:48:17.284Z,84.98
2023-05-07T00:48:29.725Z,84.98
2023-05-07T00:48:41.403Z,84.98
2023-05-07T00:48:53.812Z,84.98
2023-05-07T00:49:04.536Z,84.98
2023-05-07T00:49:16.191Z,85.19
2023-05-07T00:49:28.594Z,85.19
2023-05-07T00:49:41.041Z,85.19
2023-05-07T00:49:54.195Z,85.19
2023-05-07T00:50:04.970Z,85.08
2023-05-07T00:50:15.672Z,85.08
2023-05-07T00:50:28.084Z,85.08
2023-05-07T00:50:40.469Z,85.19
2023-05-07T00:50:52.343Z,85.08
2023-05-07T00:51:04.619Z,84.98
2023-05-07T00:51:15.356Z,84.88
2023-05-07T00:51:27.033Z,84.88
2023-05-07T00:51:37.761Z,84.88
2023-05-07T00:51:48.440Z,84.78
2023-05-07T00:52:01.625Z,84.78
2023-05-07T00:52:12.333Z,84.78
2023-05-07T00:52:26.049Z,84.88
2023-05-07T00:52:37.778Z,84.98
2023-05-07T00:52:49.442Z,84.98
2023-05-07T00:53:01.621Z,84.98
2023-05-07T00:53:13.283Z,84.98
2023-05-07T00:53:23.997Z,84.98
2023-05-07T00:53:36.375Z,84.98
2023-05-07T00:53:48.759Z,84.98
2023-05-07T00:54:01.915Z,84.98
2023-05-07T00:54:14.326Z,84.98
2023-05-07T00:54:25.050Z,84.98
2023-05-07T00:54:38.210Z,84.98
2023-05-07T00:54:49.885Z,84.88
2023-05-07T00:55:02.275Z,84.88
2023-05-07T00:55:14.478Z,84.88
2023-05-07T00:55:27.367Z,84.88
2023-05-07T00:55:39.048Z,84.98
2023-05-07T00:55:51.418Z,84.98
2023-05-07T00:56:02.189Z,85.08
2023-05-07T00:56:12.840Z,84.98
2023-05-07T00:56:24.532Z,84.98
2023-05-07T00:56:36.198Z,84.88
2023-05-07T00:56:48.381Z,84.88
2023-05-07T00:57:00.114Z,84.88
2023-05-07T00:57:11.777Z,84.78
2023-05-07T00:57:22.534Z,84.67
2023-05-07T00:57:33.257Z,84.67
2023-05-07T00:57:43.954Z,84.67
2023-05-07T00:57:57.116Z,84.67
2023-05-07T00:58:09.817Z,84.78
2023-05-07T00:58:21.466Z,84.78
2023-05-07T00:58:33.874Z,84.78
2023-05-07T00:58:44.655Z,84.88
2023-05-07T00:58:57.827Z,84.98
2023-05-07T00:59:10.276Z,84.88
2023-05-07T00:59:22.487Z,84.78
2023-05-07T00:59:34.154Z,84.67
2023-05-07T00:59:45.809Z,84.58
2023-05-07T00:59:56.565Z,84.47
2023-05-07T01:00:07.267Z,84.37
2023-05-07T01:00:17.964Z,84.37
2023-05-07T01:00:30.633Z,84.27
2023-05-07T01:00:42.359Z,84.27
2023-05-07T01:00:53.061Z,84.27
2023-05-07T01:01:04.781Z,84.17
2023-05-07T01:01:15.524Z,84.17
2023-05-07T01:01:27.212Z,84.27
2023-05-07T01:01:39.739Z,84.27
2023-05-07T01:01:52.188Z,84.27
2023-05-07T01:02:02.946Z,84.17
2023-05-07T01:02:13.677Z,84.17
2023-05-07T01:02:25.394Z,84.17
2023-05-07T01:02:36.117Z,84.37
2023-05-07T01:02:48.657Z,84.58
2023-05-07T01:02:59.811Z,84.58
2023-05-07T01:03:10.830Z,84.58
2023-05-07T01:03:22.071Z,84.37
2023-05-07T01:03:33.128Z,84.27
2023-05-07T01:03:44.034Z,84.27
2023-05-07T01:03:56.803Z,84.17
2023-05-07T01:04:10.483Z,84.17
2023-05-07T01:04:23.033Z,84.06
2023-05-07T01:04:34.933Z,84.17
2023-05-07T01:04:47.700Z,84.27
2023-05-07T01:05:00.437Z,84.17
2023-05-07T01:05:11.602Z,84.17
2023-05-07T01:05:22.859Z,84.17
2023-05-07T01:05:34.027Z,84.06
2023-05-07T01:05:45.246Z,84.17
2023-05-07T01:05:56.288Z,84.27
2023-05-07T01:06:09.660Z,84.27
2023-05-07T01:06:21.655Z,84.37
2023-05-07T01:06:32.801Z,84.37
2023-05-07T01:06:44.818Z,84.37
2023-05-07T01:06:55.786Z,84.37
2023-05-07T01:07:08.289Z,84.27
2023-05-07T01:07:18.981Z,84.27
2023-05-07T01:07:30.662Z,84.17
2023-05-07T01:07:41.402Z,84.17
2023-05-07T01:07:52.111Z,84.17
2023-05-07T01:08:03.805Z,84.27
2023-05-07T01:08:15.483Z,84.27
2023-05-07T01:08:26.762Z,84.27
2023-05-07T01:08:39.972Z,84.37
2023-05-07T01:08:50.696Z,84.47
2023-05-07T01:09:02.368Z,84.47
2023-05-07T01:09:14.807Z,84.27
2023-05-07T01:09:25.557Z,84.17
2023-05-07T01:09:36.429Z,84.06
2023-05-07T01:09:47.127Z,84.17
2023-05-07T01:09:57.819Z,84.17
2023-05-07T01:10:08.676Z,84.17
2023-05-07T01:10:20.398Z,84.17
2023-05-07T01:10:31.145Z,84.06
2023-05-07T01:10:42.811Z,84.06
2023-05-07T01:10:56.992Z,84.06
2023-05-07T01:11:09.397Z,84.17
2023-05-07T01:11:21.139Z,84.17
2023-05-07T01:11:31.877Z,84.17
2023-05-07T01:11:42.578Z,84.17
2023-05-07T01:11:53.289Z,84.27
2023-05-07T01:12:05.651Z,84.37
2023-05-07T01:12:16.348Z,84.37
2023-05-07T01:12:27.034Z,84.37
2023-05-07T01:12:40.201Z,84.37
2023-05-07T01:12:51.899Z,84.17
2023-05-07T01:13:03.639Z,84.17
2023-05-07T01:13:17.818Z,84.06
2023-05-07T01:13:30.039Z,84.06
2023-05-07T01:13:42.221Z,84.06
2023-05-07T01:13:54.612Z,84.06
2023-05-07T01:14:06.319Z,84.06
2023-05-07T01:14:17.043Z,84.06
2023-05-07T01:14:29.428Z,84.06
2023-05-07T01:14:40.134Z,84.17
2023-05-07T01:14:50.819Z,84.27
2023-05-07T01:15:02.479Z,84.27
2023-05-07T01:15:14.204Z,84.17
2023-05-07T01:15:25.901Z,84.17
2023-05-07T01:15:36.597Z,84.06
2023-05-07T01:15:49.029Z,83.96
2023-05-07T01:16:00.708Z,84.06
2023-05-07T01:16:13.107Z,84.17
2023-05-07T01:16:26.821Z,84.27
2023-05-07T01:16:39.226Z,84.27
2023-05-07T01:16:50.006Z,84.17
2023-05-07T01:17:00.753Z,84.17
2023-05-07T01:17:13.421Z,84.06
2023-05-07T01:17:25.649Z,84.06
2023-05-07T01:17:38.064Z,84.17
2023-05-07T01:17:50.476Z,84.27
2023-05-07T01:18:02.960Z,84.27
2023-05-07T01:18:15.352Z,84.27
2023-05-07T01:18:27.024Z,84.27
2023-05-07T01:18:37.738Z,84.37
2023-05-07T01:18:49.466Z,84.37
2023-05-07T01:19:01.848Z,84.27
2023-05-07T01:19:13.593Z,84.27
2023-05-07T01:19:24.394Z,84.27
2023-05-07T01:19:35.086Z,84.17
2023-05-07T01:19:46.771Z,84.17
2023-05-07T01:19:57.464Z,84.17
2023-05-07T01:20:08.229Z,84.17
2023-05-07T01:20:19.007Z,84.17
2023-05-07T01:20:29.707Z,84.17
2023-05-07T01:20:41.421Z,84.06
2023-05-07T01:20:53.044Z,84.17
2023-05-07T01:21:03.750Z,84.27
2023-05-07T01:21:15.470Z,84.27
2023-05-07T01:21:27.124Z,84.27
2023-05-07T01:21:37.823Z,84.47
2023-05-07T01:21:48.526Z,84.58
2023-05-07T01:21:59.267Z,84.58
2023-05-07T01:22:11.683Z,84.37
2023-05-07T01:22:22.377Z,84.17
2023-05-07T01:22:34.068Z,83.86
2023-05-07T01:22:46.720Z,83.76
2023-05-07T01:22:57.445Z,83.65
2023-05-07T01:23:08.188Z,83.65
2023-05-07T01:23:20.571Z,83.65
2023-05-07T01:23:32.949Z,83.76
2023-05-07T01:23:43.716Z,83.76
2023-05-07T01:23:55.869Z,83.86
2023-05-07T01:24:07.717Z,83.76
2023-05-07T01:24:19.393Z,83.76
2023-05-07T01:24:30.133Z,83.76
2023-05-07T01:24:41.113Z,83.86
2023-05-07T01:24:53.494Z,83.86
2023-05-07T01:25:05.878Z,83.96
2023-05-07T01:25:16.576Z,84.06
2023-05-07T01:25:28.241Z,84.11
2023-05-07T01:25:39.886Z,84.17
2023-05-07T01:25:50.598Z,84.17
2023-05-07T01:26:01.346Z,84.17
2023-05-07T01:26:13.780Z,84.31
2023-05-07T01:26:25.950Z,84.37
2023-05-07T01:26:37.688Z,84.37
2023-05-07T01:26:48.415Z,84.37
2023-05-07T01:26:59.166Z,84.37
2023-05-07T01:27:12.357Z,84.37
2023-05-07T01:27:24.044Z,84.37
2023-05-07T01:27:34.755Z,84.61
2023-05-07T01:27:47.924Z,84.58
2023-05-07T01:28:00.357Z,84.61
2023-05-07T01:28:12.766Z,84.58
2023-05-07T01:28:23.485Z,84.67
2023-05-07T01:28:35.684Z,84.67
2023-05-07T01:28:47.346Z,84.67
2023-05-07T01:29:01.518Z,84.82
2023-05-07T01:29:12.212Z,84.78
2023-05-07T01:29:24.642Z,84.88
2023-05-07T01:29:37.308Z,84.88
2023-05-07T01:29:48.954Z,84.78
2023-05-07T01:29:59.668Z,84.78
2023-05-07T01:30:12.461Z,84.82
2023-05-07T01:30:23.470Z,84.82
2023-05-07T01:30:35.869Z,84.78
2023-05-07T01:30:46.572Z,84.72
2023-05-07T01:30:57.297Z,84.72
2023-05-07T01:31:09.544Z,84.72
2023-05-07T01:31:20.271Z,84.67
2023-05-07T01:31:31.983Z,84.67
2023-05-07T01:31:43.808Z,84.67
2023-05-07T01:31:56.185Z,84.67
2023-05-07T01:32:09.107Z,84.72
2023-05-07T01:32:19.859Z,84.72
2023-05-07T01:32:32.297Z,84.72
2023-05-07T01:32:43.050Z,84.61
2023-05-07T01:32:55.549Z,84.61
2023-05-07T01:33:08.029Z,84.61
2023-05-07T01:33:18.756Z,84.72
2023-05-07T01:33:29.468Z,84.61
2023-05-07T01:33:40.174Z,84.61
2023-05-07T01:33:50.909Z,84.61
2023-05-07T01:34:03.089Z,84.61
2023-05-07T01:34:16.267Z,84.51
2023-05-07T01:34:26.967Z,84.51
2023-05-07T01:34:37.771Z,84.41
2023-05-07T01:34:50.199Z,84.41
2023-05-07T01:35:03.098Z,84.41
2023-05-07T01:35:14.790Z,84.41
2023-05-07T01:35:27.189Z,84.41
2023-05-07T01:35:37.909Z,84.31
2023-05-07T01:35:50.338Z,84.31
2023-05-07T01:36:02.016Z,84.31
2023-05-07T01:36:14.393Z,84.20
2023-05-07T01:36:27.580Z,84.20
2023-05-07T01:36:41.021Z,84.11
2023-05-07T01:36:52.700Z,84.11
2023-05-07T01:37:04.388Z,84.11
2023-05-07T01:37:16.833Z,84.11
2023-05-07T01:37:27.578Z,84.11
2023-05-07T01:37:39.293Z,84.11
2023-05-07T01:37:49.988Z,84.11
2023-05-07T01:38:03.173Z,84.11
2023-05-07T01:38:15.576Z,84.20
2023-05-07T01:38:26.365Z,84.31
2023-05-07T01:38:38.563Z,84.31
2023-05-07T01:38:49.279Z,84.31
2023-05-07T01:39:00.032Z,84.31
2023-05-07T01:39:11.783Z,84.41
2023-05-07T01:39:24.179Z,84.51
2023-05-07T01:39:34.935Z,84.72
2023-05-07T01:39:45.684Z,84.72
2023-05-07T01:40:01.345Z,85.02
2023-05-07T01:40:13.223Z,85.13
2023-05-07T01:40:25.676Z,85.22
2023-05-07T01:40:37.324Z,85.22
2023-05-07T01:40:49.724Z,85.33
2023-05-07T01:41:00.445Z,85.33
2023-05-07T01:41:11.132Z,85.13
2023-05-07T01:41:22.755Z,85.02
2023-05-07T01:41:33.554Z,84.92
2023-05-07T01:41:46.790Z,84.82
2023-05-07T01:41:57.477Z,84.72
2023-05-07T01:42:08.271Z,84.72
2023-05-07T01:42:18.960Z,84.82
2023-05-07T01:42:30.664Z,84.82
2023-05-07T01:42:41.372Z,84.92
2023-05-07T01:42:52.083Z,85.13
2023-05-07T01:43:02.844Z,85.22
2023-05-07T01:43:15.270Z,85.22
2023-05-07T01:43:25.966Z,85.13
2023-05-07T01:43:36.654Z,85.13
2023-05-07T01:43:49.827Z,85.02
2023-05-07T01:44:01.507Z,85.02
2023-05-07T01:44:13.687Z,84.92
2023-05-07T01:44:24.434Z,85.02
2023-05-07T01:44:36.156Z,84.92
2023-05-07T01:44:48.305Z,84.92
2023-05-07T01:45:00.010Z,84.92
2023-05-07T01:45:11.671Z,85.02
2023-05-07T01:45:24.216Z,85.02
2023-05-07T01:45:34.924Z,85.13
2023-05-07T01:45:47.079Z,85.22
2023-05-07T01:45:57.805Z,85.33
2023-05-07T01:46:08.577Z,85.33
2023-05-07T01:46:20.792Z,85.33
2023-05-07T01:46:31.496Z,85.22
2023-05-07T01:46:43.168Z,85.13
2023-05-07T01:46:54.040Z,85.02
2023-05-07T01:47:04.749Z,84.92
2023-05-07T01:47:15.508Z,84.92
2023-05-07T01:47:27.913Z,85.02
2023-05-07T01:47:39.606Z,85.13
2023-05-07T01:47:52.053Z,85.13
2023-05-07T01:48:05.228Z,85.13
2023-05-07T01:48:15.913Z,85.22
2023-05-07T01:48:26.622Z,85.22
2023-05-07T01:48:39.040Z,85.33
2023-05-07T01:48:49.732Z,85.53
2023-05-07T01:49:01.400Z,85.53
2023-05-07T01:49:13.129Z,85.63
2023-05-07T01:49:23.865Z,85.63
2023-05-07T01:49:35.531Z,85.84
2023-05-07T01:49:47.224Z,85.94
2023-05-07T01:49:57.921Z,86.04
2023-05-07T01:50:10.457Z,86.15
2023-05-07T01:50:22.917Z,86.24
2023-05-07T01:50:35.831Z,86.45
2023-05-07T01:50:47.566Z,86.35
2023-05-07T01:50:59.769Z,86.24
2023-05-07T01:51:10.467Z,86.24
2023-05-07T01:51:22.701Z,86.24
2023-05-07T01:51:33.364Z,86.35
2023-05-07T01:51:45.040Z,86.35
2023-05-07T01:51:56.734Z,86.45
2023-05-07T01:52:07.451Z,86.55
2023-05-07T01:52:20.342Z,86.55
2023-05-07T01:52:31.033Z,86.65
2023-05-07T01:52:41.720Z,86.86
2023-05-07T01:52:54.896Z,87.06
2023-05-07T01:53:06.556Z,87.26
2023-05-07T01:53:18.243Z,87.16
2023-05-07T01:53:28.956Z,87.16
2023-05-07T01:53:40.625Z,87.06
2023-05-07T01:53:51.353Z,87.06
2023-05-07T01:54:02.063Z,86.96
2023-05-07T01:54:12.800Z,86.96
2023-05-07T01:54:23.508Z,86.86
2023-05-07T01:54:35.975Z,86.86
2023-05-07T01:54:46.690Z,86.76
2023-05-07T01:54:57.420Z,86.86
2023-05-07T01:55:08.113Z,86.96
2023-05-07T01:55:18.808Z,87.06
2023-05-07T01:55:29.530Z,87.06
2023-05-07T01:55:40.241Z,87.16
2023-05-07T01:55:52.056Z,87.16
2023-05-07T01:56:02.816Z,87.16
2023-05-07T01:56:13.570Z,87.06
2023-05-07T01:56:25.764Z,87.06
2023-05-07T01:56:36.470Z,87.16
2023-05-07T01:56:47.161Z,87.06
2023-05-07T01:56:59.539Z,87.16
2023-05-07T01:57:10.231Z,87.26
2023-05-07T01:57:22.422Z,87.26
2023-05-07T01:57:36.275Z,87.26
2023-05-07T01:57:48.439Z,87.20
2023-05-07T01:58:00.636Z,87.06
2023-05-07T01:58:12.552Z,87.06
2023-05-07T01:58:24.948Z,87.06
2023-05-07T01:58:36.613Z,87.06
2023-05-07T01:58:48.341Z,87.00
2023-05-07T01:59:00.052Z,87.00
2023-05-07T01:59:11.276Z,87.10
2023-05-07T01:59:22.970Z,87.10
2023-05-07T01:59:35.349Z,87.10
2023-05-07T01:59:46.135Z,87.20
2023-05-07T01:59:58.560Z,87.20
2023-05-07T02:00:09.588Z,87.20
2023-05-07T02:00:22.697Z,87.20
2023-05-07T02:00:33.445Z,87.20
2023-05-07T02:00:45.210Z,87.20
2023-05-07T02:00:57.498Z,87.10
2023-05-07T02:01:09.160Z,87.20
2023-05-07T02:01:20.032Z,87.20
2023-05-07T02:01:30.948Z,87.10
2023-05-07T02:01:42.622Z,87.20
2023-05-07T02:01:55.048Z,87.20
2023-05-07T02:02:07.642Z,87.10
2023-05-07T02:02:18.476Z,87.10
2023-05-07T02:02:29.274Z,87.20
2023-05-07T02:02:40.043Z,87.20
2023-05-07T02:02:50.936Z,87.30
2023-05-07T02:03:04.365Z,87.30
2023-05-07T02:03:17.235Z,87.20
2023-05-07T02:03:28.082Z,87.20
2023-05-07T02:03:38.870Z,87.30
2023-05-07T02:03:49.804Z,87.30
2023-05-07T02:04:00.645Z,87.30
2023-05-07T02:04:12.318Z,87.30
2023-05-07T02:04:24.092Z,87.20
2023-05-07T02:04:34.774Z,87.30
2023-05-07T02:04:47.954Z,87.30
2023-05-07T02:05:03.628Z,87.30
2023-05-07T02:05:16.024Z,87.20
2023-05-07T02:05:26.720Z,87.20
2023-05-07T02:05:38.400Z,87.20
2023-05-07T02:05:51.554Z,87.20
2023-05-07T02:06:03.224Z,87.20
2023-05-07T02:06:16.586Z,87.30
2023-05-07T02:06:28.914Z,87.30
2023-05-07T02:06:39.604Z,87.30
2023-05-07T02:06:50.301Z,87.20
2023-05-07T02:07:01.053Z,87.20
2023-05-07T02:07:12.962Z,87.20
2023-05-07T02:07:23.690Z,87.20
2023-05-07T02:07:34.356Z,87.20
2023-05-07T02:07:46.068Z,87.20
2023-05-07T02:07:57.705Z,87.20
2023-05-07T02:08:09.355Z,86.90
2023-05-07T02:08:20.096Z,86.80
2023-05-07T02:08:32.640Z,86.80
2023-05-07T02:08:44.352Z,86.80
2023-05-07T02:08:55.289Z,86.80
2023-05-07T02:09:07.678Z,86.69
2023-05-07T02:09:19.369Z,86.69
2023-05-07T02:09:30.088Z,86.69
2023-05-07T02:09:40.802Z,86.69
2023-05-07T02:09:51.509Z,86.59
2023-05-07T02:10:03.169Z,86.39
2023-05-07T02:10:15.572Z,86.29
2023-05-07T02:10:29.264Z,86.18
2023-05-07T02:10:41.653Z,86.08
2023-05-07T02:10:53.317Z,85.98
2023-05-07T02:11:05.497Z,85.98
2023-05-07T02:11:16.188Z,85.98
2023-05-07T02:11:28.364Z,85.98
2023-05-07T02:11:41.280Z,85.88
2023-05-07T02:11:51.962Z,85.77
2023-05-07T02:12:02.682Z,85.68
2023-05-07T02:12:13.456Z,85.57
2023-05-07T02:12:24.136Z,85.47
2023-05-07T02:12:35.841Z,85.57
2023-05-07T02:12:46.595Z,85.68
2023-05-07T02:12:58.975Z,85.77
2023-05-07T02:13:10.694Z,85.77
2023-05-07T02:13:21.465Z,85.68
2023-05-07T02:13:32.172Z,85.57
2023-05-07T02:13:42.894Z,85.57
2023-05-07T02:13:53.585Z,85.57
2023-05-07T02:14:04.288Z,85.47
2023-05-07T02:14:15.947Z,85.47
2023-05-07T02:14:26.684Z,85.47
2023-05-07T02:14:37.428Z,85.47
2023-05-07T02:14:49.092Z,85.68
2023-05-07T02:15:00.784Z,85.77
2023-05-07T02:15:11.522Z,85.77
2023-05-07T02:15:24.680Z,85.77
2023-05-07T02:15:37.852Z,85.77
2023-05-07T02:15:50.541Z,85.68
2023-05-07T02:16:02.243Z,85.77
2023-05-07T02:16:12.980Z,85.77
2023-05-07T02:16:25.407Z,85.77
2023-05-07T02:16:37.124Z,85.68
2023-05-07T02:16:49.349Z,85.68
2023-05-07T02:17:00.229Z,85.68
2023-05-07T02:17:11.934Z,85.68
2023-05-07T02:17:22.751Z,85.68
2023-05-07T02:17:34.452Z,85.57
2023-05-07T02:17:45.140Z,85.57
2023-05-07T02:17:55.873Z,85.57
2023-05-07T02:18:06.554Z,85.57
2023-05-07T02:18:18.239Z,85.57
2023-05-07T02:18:28.945Z,85.57
2023-05-07T02:18:41.332Z,85.57
2023-05-07T02:18:53.032Z,85.57
2023-05-07T02:19:05.231Z,85.57
2023-05-07T02:19:16.016Z,85.47
2023-05-07T02:19:29.167Z,85.47
2023-05-07T02:19:41.829Z,85.47
2023-05-07T02:19:52.551Z,85.37
2023-05-07T02:20:03.276Z,85.47
2023-05-07T02:20:14.991Z,85.57
2023-05-07T02:20:27.385Z,85.57
2023-05-07T02:20:38.121Z,85.57
2023-05-07T02:20:49.812Z,85.57
2023-05-07T02:21:01.555Z,85.71
2023-05-07T02:21:13.264Z,85.68
2023-05-07T02:21:25.659Z,85.77
2023-05-07T02:21:36.374Z,85.68
2023-05-07T02:21:47.081Z,85.77
2023-05-07T02:21:59.513Z,85.71
2023-05-07T02:22:11.185Z,85.71
2023-05-07T02:22:23.576Z,85.68
2023-05-07T02:22:35.797Z,85.68
2023-05-07T02:22:48.184Z,85.77
2023-05-07T02:22:58.910Z,85.61
2023-05-07T02:23:11.320Z,85.51
2023-05-07T02:23:22.078Z,85.51
2023-05-07T02:23:34.244Z,85.47
2023-05-07T02:23:44.923Z,85.57
2023-05-07T02:23:56.592Z,85.71
2023-05-07T02:24:07.307Z,85.82
2023-05-07T02:24:19.034Z,85.82
2023-05-07T02:24:29.747Z,85.82
2023-05-07T02:24:40.452Z,85.77
2023-05-07T02:24:51.188Z,85.82
2023-05-07T02:25:01.940Z,85.82
2023-05-07T02:25:12.626Z,85.68
2023-05-07T02:25:24.327Z,85.82
2023-05-07T02:25:35.058Z,85.92
2023-05-07T02:25:48.758Z,85.92
2023-05-07T02:25:59.458Z,85.92
2023-05-07T02:26:10.175Z,85.92
2023-05-07T02:26:23.060Z,85.92
2023-05-07T02:26:33.750Z,85.92
2023-05-07T02:26:45.677Z,85.92
2023-05-07T02:26:58.122Z,85.92
2023-05-07T02:27:08.816Z,85.82
2023-05-07T02:27:21.729Z,85.82
2023-05-07T02:27:33.982Z,85.92
2023-05-07T02:27:46.391Z,86.02
2023-05-07T02:27:57.083Z,86.02
2023-05-07T02:28:10.196Z,85.92
2023-05-07T02:28:22.390Z,85.92